Terminal Aerodrome Forecast
Issued by NWS

Home | Current Version | Previous Version | Text Only | Print | Product List | Glossary On
Versions: 1 2 3 4 5 6 7 8 9 10 11 12 13
643
FTUS44 KJAN 281737 AAA
TAFGTR
TAF AMD
KGTR 281737Z 2818/2918 16014G20KT P6SM VCSH BKN050 BKN250
     FM290000 13005KT P6SM BKN250
     FM291100 16002KT 5SM BR BKN250
     FM291400 VRB03KT P6SM SCT250=

USA.gov is the U.S. government's official web portal to all federal, state and local government web resources and services.